sensor_id;sensor_type;location;lat;lon;timestamp;P1;durP1;ratioP1;P2;durP2;ratioP2
33716;SDS011;20046;50.746;7.072;2023-03-01T00:01:49;28.88;;;13.20;;
33716;SDS011;20046;50.746;7.072;2023-03-01T00:04:15;30.30;;;14.45;;
33716;SDS011;20046;50.746;7.072;2023-03-01T00:06:44;29.67;;;12.93;;
33716;SDS011;20046;50.746;7.072;2023-03-01T00:09:13;37.85;;;14.27;;
33716;SDS011;20046;50.746;7.072;2023-03-01T00:11:39;28.33;;;14.00;;
33716;SDS011;20046;50.746;7.072;2023-03-01T00:14:06;32.40;;;13.57;;
33716;SDS011;20046;50.746;7.072;2023-03-01T00:16:41;27.40;;;13.50;;
33716;SDS011;20046;50.746;7.072;2023-03-01T00:19:09;22.85;;;12.35;;
33716;SDS011;20046;50.746;7.072;2023-03-01T00:21:38;32.65;;;14.57;;
33716;SDS011;20046;50.746;7.072;2023-03-01T00:24:04;30.70;;;13.93;;
33716;SDS011;20046;50.746;7.072;2023-03-01T00:26:30;32.10;;;14.35;;
33716;SDS011;20046;50.746;7.072;2023-03-01T00:28:56;30.65;;;14.50;;
33716;SDS011;20046;50.746;7.072;2023-03-01T00:31:23;37.75;;;15.93;;
33716;SDS011;20046;50.746;7.072;2023-03-01T00:33:53;30.30;;;13.20;;
33716;SDS011;20046;50.746;7.072;2023-03-01T00:36:24;34.13;;;14.13;;
33716;SDS011;20046;50.746;7.072;2023-03-01T00:38:51;30.52;;;14.68;;
33716;SDS011;20046;50.746;7.072;2023-03-01T00:41:17;31.13;;;13.95;;
33716;SDS011;20046;50.746;7.072;2023-03-01T00:43:44;28.00;;;14.00;;
33716;SDS011;20046;50.746;7.072;2023-03-01T00:46:11;37.85;;;15.20;;
33716;SDS011;20046;50.746;7.072;2023-03-01T00:48:39;28.73;;;13.43;;
33716;SDS011;20046;50.746;7.072;2023-03-01T00:51:06;30.83;;;14.13;;
33716;SDS011;20046;50.746;7.072;2023-03-01T00:53:37;30.83;;;14.73;;
33716;SDS011;20046;50.746;7.072;2023-03-01T00:56:03;30.80;;;13.80;;
33716;SDS011;20046;50.746;7.072;2023-03-01T00:58:30;32.60;;;14.57;;
33716;SDS011;20046;50.746;7.072;2023-03-01T01:00:56;29.85;;;14.13;;
33716;SDS011;20046;50.746;7.072;2023-03-01T01:03:21;34.83;;;14.13;;
33716;SDS011;20046;50.746;7.072;2023-03-01T01:05:49;31.77;;;13.77;;
33716;SDS011;20046;50.746;7.072;2023-03-01T01:08:15;31.33;;;14.82;;
33716;SDS011;20046;50.746;7.072;2023-03-01T01:10:43;37.40;;;14.77;;
33716;SDS011;20046;50.746;7.072;2023-03-01T01:13:09;28.38;;;13.52;;
33716;SDS011;20046;50.746;7.072;2023-03-01T01:15:35;30.13;;;12.68;;
33716;SDS011;20046;50.746;7.072;2023-03-01T01:18:01;30.33;;;14.63;;
33716;SDS011;20046;50.746;7.072;2023-03-01T01:20:27;30.40;;;13.95;;
33716;SDS011;20046;50.746;7.072;2023-03-01T01:22:52;36.08;;;15.27;;
33716;SDS011;20046;50.746;7.072;2023-03-01T01:25:18;28.63;;;14.45;;
33716;SDS011;20046;50.746;7.072;2023-03-01T01:27:44;26.50;;;14.02;;
33716;SDS011;20046;50.746;7.072;2023-03-01T01:30:09;30.27;;;14.10;;
33716;SDS011;20046;50.746;7.072;2023-03-01T01:32:36;28.17;;;13.48;;
33716;SDS011;20046;50.746;7.072;2023-03-01T01:35:01;31.58;;;15.30;;
33716;SDS011;20046;50.746;7.072;2023-03-01T01:37:27;28.33;;;12.95;;
33716;SDS011;20046;50.746;7.072;2023-03-01T01:39:56;30.00;;;15.15;;
33716;SDS011;20046;50.746;7.072;2023-03-01T01:42:24;29.73;;;14.68;;
33716;SDS011;20046;50.746;7.072;2023-03-01T01:45:15;32.70;;;16.27;;
33716;SDS011;20046;50.746;7.072;2023-03-01T01:47:54;28.92;;;14.20;;
33716;SDS011;20046;50.746;7.072;2023-03-01T01:50:22;33.63;;;16.17;;
33716;SDS011;20046;50.746;7.072;2023-03-01T01:52:48;38.78;;;16.08;;
33716;SDS011;20046;50.746;7.072;2023-03-01T01:55:17;34.85;;;15.23;;
33716;SDS011;20046;50.746;7.072;2023-03-01T01:57:49;35.95;;;15.27;;
33716;SDS011;20046;50.746;7.072;2023-03-01T02:00:21;33.58;;;15.40;;
33716;SDS011;20046;50.746;7.072;2023-03-01T02:02:49;31.05;;;14.75;;
33716;SDS011;20046;50.746;7.072;2023-03-01T02:05:32;39.42;;;16.17;;
33716;SDS011;20046;50.746;7.072;2023-03-01T02:08:01;39.42;;;16.08;;
33716;SDS011;20046;50.746;7.072;2023-03-01T02:10:27;37.65;;;15.35;;
33716;SDS011;20046;50.746;7.072;2023-03-01T02:12:54;34.22;;;16.30;;
33716;SDS011;20046;50.746;7.072;2023-03-01T02:15:21;34.08;;;15.02;;
33716;SDS011;20046;50.746;7.072;2023-03-01T02:17:48;43.03;;;16.40;;
33716;SDS011;20046;50.746;7.072;2023-03-01T02:20:29;30.73;;;15.70;;
33716;SDS011;20046;50.746;7.072;2023-03-01T02:22:58;34.42;;;15.65;;
33716;SDS011;20046;50.746;7.072;2023-03-01T02:25:31;33.78;;;16.33;;
33716;SDS011;20046;50.746;7.072;2023-03-01T02:28:37;33.13;;;15.25;;
33716;SDS011;20046;50.746;7.072;2023-03-01T02:31:06;40.38;;;15.05;;
33716;SDS011;20046;50.746;7.072;2023-03-01T02:33:51;38.38;;;15.43;;
33716;SDS011;20046;50.746;7.072;2023-03-01T02:36:22;34.00;;;15.20;;
33716;SDS011;20046;50.746;7.072;2023-03-01T02:38:51;40.05;;;15.60;;
33716;SDS011;20046;50.746;7.072;2023-03-01T02:41:20;35.72;;;15.63;;
33716;SDS011;20046;50.746;7.072;2023-03-01T02:43:48;31.38;;;14.98;;
33716;SDS011;20046;50.746;7.072;2023-03-01T02:46:15;37.53;;;16.30;;
33716;SDS011;20046;50.746;7.072;2023-03-01T02:48:52;30.63;;;14.70;;
33716;SDS011;20046;50.746;7.072;2023-03-01T02:56:41;30.90;;;15.10;;
33716;SDS011;20046;50.746;7.072;2023-03-01T02:59:09;33.13;;;14.98;;
33716;SDS011;20046;50.746;7.072;2023-03-01T03:01:35;34.80;;;16.30;;
33716;SDS011;20046;50.746;7.072;2023-03-01T03:04:07;29.63;;;13.82;;
33716;SDS011;20046;50.746;7.072;2023-03-01T03:06:35;33.67;;;15.77;;
33716;SDS011;20046;50.746;7.072;2023-03-01T03:09:01;30.75;;;15.43;;
33716;SDS011;20046;50.746;7.072;2023-03-01T03:11:28;34.35;;;16.42;;
33716;SDS011;20046;50.746;7.072;2023-03-01T03:13:54;31.77;;;15.10;;
33716;SDS011;20046;50.746;7.072;2023-03-01T03:16:20;29.50;;;14.77;;
33716;SDS011;20046;50.746;7.072;2023-03-01T03:18:46;36.92;;;15.63;;
33716;SDS011;20046;50.746;7.072;2023-03-01T03:21:12;38.25;;;16.92;;
33716;SDS011;20046;50.746;7.072;2023-03-01T03:23:38;38.42;;;15.82;;
33716;SDS011;20046;50.746;7.072;2023-03-01T03:26:04;31.63;;;14.98;;
33716;SDS011;20046;50.746;7.072;2023-03-01T03:28:31;34.42;;;15.23;;
33716;SDS011;20046;50.746;7.072;2023-03-01T03:30:58;33.47;;;15.98;;
33716;SDS011;20046;50.746;7.072;2023-03-01T03:33:28;36.85;;;15.75;;
33716;SDS011;20046;50.746;7.072;2023-03-01T03:35:57;32.40;;;15.88;;
33716;SDS011;20046;50.746;7.072;2023-03-01T03:38:23;31.58;;;16.02;;
33716;SDS011;20046;50.746;7.072;2023-03-01T03:40:50;28.77;;;14.82;;
33716;SDS011;20046;50.746;7.072;2023-03-01T03:43:27;35.78;;;15.90;;
33716;SDS011;20046;50.746;7.072;2023-03-01T03:45:53;37.78;;;16.08;;
33716;SDS011;20046;50.746;7.072;2023-03-01T03:48:19;34.55;;;16.20;;
33716;SDS011;20046;50.746;7.072;2023-03-01T03:50:49;33.60;;;15.15;;
33716;SDS011;20046;50.746;7.072;2023-03-01T03:53:17;34.70;;;15.45;;
33716;SDS011;20046;50.746;7.072;2023-03-01T03:55:43;32.42;;;15.00;;
33716;SDS011;20046;50.746;7.072;2023-03-01T03:58:09;34.80;;;15.82;;
33716;SDS011;20046;50.746;7.072;2023-03-01T04:00:39;34.47;;;15.55;;
33716;SDS011;20046;50.746;7.072;2023-03-01T04:03:07;31.65;;;15.52;;
33716;SDS011;20046;50.746;7.072;2023-03-01T04:05:34;33.88;;;16.08;;
33716;SDS011;20046;50.746;7.072;2023-03-01T04:08:01;33.47;;;16.08;;
33716;SDS011;20046;50.746;7.072;2023-03-01T04:10:27;34.50;;;15.65;;
33716;SDS011;20046;50.746;7.072;2023-03-01T04:12:54;30.45;;;14.75;;
33716;SDS011;20046;50.746;7.072;2023-03-01T04:15:21;34.20;;;15.68;;
33716;SDS011;20046;50.746;7.072;2023-03-01T04:17:49;33.10;;;15.80;;
33716;SDS011;20046;50.746;7.072;2023-03-01T04:20:18;33.80;;;15.73;;
33716;SDS011;20046;50.746;7.072;2023-03-01T04:22:59;35.75;;;15.02;;
33716;SDS011;20046;50.746;7.072;2023-03-01T04:31:11;35.78;;;16.35;;
33716;SDS011;20046;50.746;7.072;2023-03-01T04:33:41;35.20;;;16.10;;
33716;SDS011;20046;50.746;7.072;2023-03-01T04:36:08;33.65;;;15.30;;
33716;SDS011;20046;50.746;7.072;2023-03-01T04:38:34;35.03;;;15.65;;
33716;SDS011;20046;50.746;7.072;2023-03-01T04:41:07;35.03;;;15.77;;
33716;SDS011;20046;50.746;7.072;2023-03-01T04:43:35;29.27;;;14.95;;
33716;SDS011;20046;50.746;7.072;2023-03-01T04:46:04;33.28;;;15.77;;
33716;SDS011;20046;50.746;7.072;2023-03-01T04:51:00;31.38;;;14.60;;
33716;SDS011;20046;50.746;7.072;2023-03-01T04:53:26;29.52;;;14.63;;
33716;SDS011;20046;50.746;7.072;2023-03-01T04:55:53;31.20;;;14.93;;
33716;SDS011;20046;50.746;7.072;2023-03-01T04:58:20;33.10;;;14.65;;
33716;SDS011;20046;50.746;7.072;2023-03-01T05:00:49;40.85;;;16.08;;
33716;SDS011;20046;50.746;7.072;2023-03-01T05:03:15;36.75;;;16.77;;
33716;SDS011;20046;50.746;7.072;2023-03-01T05:05:44;29.92;;;15.10;;
33716;SDS011;20046;50.746;7.072;2023-03-01T05:08:12;35.05;;;15.35;;
33716;SDS011;20046;50.746;7.072;2023-03-01T05:10:46;35.25;;;14.95;;
33716;SDS011;20046;50.746;7.072;2023-03-01T05:13:16;34.25;;;16.48;;
33716;SDS011;20046;50.746;7.072;2023-03-01T05:15:55;30.60;;;14.77;;
33716;SDS011;20046;50.746;7.072;2023-03-01T05:18:23;29.38;;;14.57;;
33716;SDS011;20046;50.746;7.072;2023-03-01T05:20:51;32.17;;;15.98;;
33716;SDS011;20046;50.746;7.072;2023-03-01T05:23:23;33.25;;;14.80;;
33716;SDS011;20046;50.746;7.072;2023-03-01T05:25:49;33.05;;;15.35;;
33716;SDS011;20046;50.746;7.072;2023-03-01T05:28:17;34.72;;;15.73;;
33716;SDS011;20046;50.746;7.072;2023-03-01T05:30:44;33.20;;;15.65;;
33716;SDS011;20046;50.746;7.072;2023-03-01T05:33:11;29.08;;;15.10;;
33716;SDS011;20046;50.746;7.072;2023-03-01T05:35:41;29.52;;;15.18;;
33716;SDS011;20046;50.746;7.072;2023-03-01T05:38:08;40.03;;;16.08;;
33716;SDS011;20046;50.746;7.072;2023-03-01T05:40:38;37.17;;;15.93;;
33716;SDS011;20046;50.746;7.072;2023-03-01T05:43:05;33.05;;;15.70;;
33716;SDS011;20046;50.746;7.072;2023-03-01T05:45:30;33.80;;;16.10;;
33716;SDS011;20046;50.746;7.072;2023-03-01T05:47:59;34.83;;;14.10;;
33716;SDS011;20046;50.746;7.072;2023-03-01T05:50:26;30.25;;;14.77;;
33716;SDS011;20046;50.746;7.072;2023-03-01T05:53:00;35.38;;;16.20;;
33716;SDS011;20046;50.746;7.072;2023-03-01T05:55:28;35.22;;;16.13;;
33716;SDS011;20046;50.746;7.072;2023-03-01T05:57:57;34.80;;;15.73;;
33716;SDS011;20046;50.746;7.072;2023-03-01T06:00:24;33.40;;;14.60;;
33716;SDS011;20046;50.746;7.072;2023-03-01T06:02:50;38.22;;;17.05;;
33716;SDS011;20046;50.746;7.072;2023-03-01T06:05:19;32.30;;;15.43;;
33716;SDS011;20046;50.746;7.072;2023-03-01T06:07:44;36.03;;;16.35;;
33716;SDS011;20046;50.746;7.072;2023-03-01T06:10:11;39.63;;;16.27;;
33716;SDS011;20046;50.746;7.072;2023-03-01T06:12:38;34.15;;;15.25;;
33716;SDS011;20046;50.746;7.072;2023-03-01T06:15:05;35.65;;;15.52;;
33716;SDS011;20046;50.746;7.072;2023-03-01T06:17:34;33.75;;;17.10;;
33716;SDS011;20046;50.746;7.072;2023-03-01T06:20:24;38.35;;;15.27;;
33716;SDS011;20046;50.746;7.072;2023-03-01T06:22:49;33.42;;;15.10;;
33716;SDS011;20046;50.746;7.072;2023-03-01T06:25:16;38.20;;;16.40;;
33716;SDS011;20046;50.746;7.072;2023-03-01T06:27:44;30.42;;;16.08;;
33716;SDS011;20046;50.746;7.072;2023-03-01T06:30:11;36.88;;;15.98;;
33716;SDS011;20046;50.746;7.072;2023-03-01T06:32:39;33.25;;;15.40;;
33716;SDS011;20046;50.746;7.072;2023-03-01T06:35:07;32.70;;;16.55;;
33716;SDS011;20046;50.746;7.072;2023-03-01T06:37:37;36.97;;;17.38;;
33716;SDS011;20046;50.746;7.072;2023-03-01T06:40:04;35.55;;;15.95;;
33716;SDS011;20046;50.746;7.072;2023-03-01T06:42:33;37.33;;;16.23;;
33716;SDS011;20046;50.746;7.072;2023-03-01T06:45:03;36.90;;;17.30;;
33716;SDS011;20046;50.746;7.072;2023-03-01T06:47:30;35.63;;;17.45;;
33716;SDS011;20046;50.746;7.072;2023-03-01T06:49:57;36.85;;;16.48;;
33716;SDS011;20046;50.746;7.072;2023-03-01T06:52:24;41.25;;;17.90;;
33716;SDS011;20046;50.746;7.072;2023-03-01T06:54:49;41.20;;;19.08;;
33716;SDS011;20046;50.746;7.072;2023-03-01T06:57:15;46.30;;;21.00;;
33716;SDS011;20046;50.746;7.072;2023-03-01T06:59:41;39.60;;;18.08;;
33716;SDS011;20046;50.746;7.072;2023-03-01T07:02:08;40.13;;;19.85;;
33716;SDS011;20046;50.746;7.072;2023-03-01T07:04:35;50.67;;;22.35;;
33716;SDS011;20046;50.746;7.072;2023-03-01T07:07:01;53.58;;;22.90;;
33716;SDS011;20046;50.746;7.072;2023-03-01T07:09:26;52.55;;;21.38;;
33716;SDS011;20046;50.746;7.072;2023-03-01T07:11:52;47.67;;;20.33;;
33716;SDS011;20046;50.746;7.072;2023-03-01T07:14:17;50.25;;;21.40;;
33716;SDS011;20046;50.746;7.072;2023-03-01T07:16:44;48.58;;;21.33;;
33716;SDS011;20046;50.746;7.072;2023-03-01T07:19:10;46.13;;;21.50;;
33716;SDS011;20046;50.746;7.072;2023-03-01T07:21:36;50.58;;;20.10;;
33716;SDS011;20046;50.746;7.072;2023-03-01T07:24:04;43.70;;;18.92;;
33716;SDS011;20046;50.746;7.072;2023-03-01T07:26:34;44.97;;;19.05;;
33716;SDS011;20046;50.746;7.072;2023-03-01T07:29:03;41.85;;;17.10;;
33716;SDS011;20046;50.746;7.072;2023-03-01T07:31:30;33.38;;;17.00;;
33716;SDS011;20046;50.746;7.072;2023-03-01T07:33:56;38.40;;;17.95;;
33716;SDS011;20046;50.746;7.072;2023-03-01T07:36:21;33.22;;;18.05;;
33716;SDS011;20046;50.746;7.072;2023-03-01T07:38:49;36.00;;;16.67;;
33716;SDS011;20046;50.746;7.072;2023-03-01T07:41:15;38.30;;;17.42;;
33716;SDS011;20046;50.746;7.072;2023-03-01T07:43:40;46.70;;;19.23;;
33716;SDS011;20046;50.746;7.072;2023-03-01T07:46:06;36.30;;;17.27;;
33716;SDS011;20046;50.746;7.072;2023-03-01T07:48:32;38.88;;;16.73;;
33716;SDS011;20046;50.746;7.072;2023-03-01T07:51:01;31.83;;;14.93;;
33716;SDS011;20046;50.746;7.072;2023-03-01T07:53:28;27.90;;;15.00;;
33716;SDS011;20046;50.746;7.072;2023-03-01T07:58:46;31.38;;;15.45;;
33716;SDS011;20046;50.746;7.072;2023-03-01T08:01:14;27.77;;;15.20;;
33716;SDS011;20046;50.746;7.072;2023-03-01T08:03:42;29.15;;;14.07;;
33716;SDS011;20046;50.746;7.072;2023-03-01T08:06:11;31.45;;;15.02;;
33716;SDS011;20046;50.746;7.072;2023-03-01T08:08:38;30.45;;;14.55;;
33716;SDS011;20046;50.746;7.072;2023-03-01T08:11:04;41.00;;;15.50;;
33716;SDS011;20046;50.746;7.072;2023-03-01T08:13:31;26.33;;;14.10;;
33716;SDS011;20046;50.746;7.072;2023-03-01T08:16:00;27.98;;;14.07;;
33716;SDS011;20046;50.746;7.072;2023-03-01T08:21:00;30.52;;;14.50;;
33716;SDS011;20046;50.746;7.072;2023-03-01T08:23:36;29.33;;;14.02;;
33716;SDS011;20046;50.746;7.072;2023-03-01T08:26:03;30.65;;;14.15;;
33716;SDS011;20046;50.746;7.072;2023-03-01T08:28:49;28.40;;;14.05;;
33716;SDS011;20046;50.746;7.072;2023-03-01T08:31:16;33.90;;;15.50;;
33716;SDS011;20046;50.746;7.072;2023-03-01T08:33:44;34.17;;;15.60;;
33716;SDS011;20046;50.746;7.072;2023-03-01T08:36:15;29.30;;;14.50;;
33716;SDS011;20046;50.746;7.072;2023-03-01T08:38:41;23.58;;;14.25;;
33716;SDS011;20046;50.746;7.072;2023-03-01T08:41:07;36.22;;;15.52;;
33716;SDS011;20046;50.746;7.072;2023-03-01T08:43:32;34.75;;;14.70;;
33716;SDS011;20046;50.746;7.072;2023-03-01T08:45:58;30.25;;;14.98;;
33716;SDS011;20046;50.746;7.072;2023-03-01T08:48:24;36.22;;;16.02;;
33716;SDS011;20046;50.746;7.072;2023-03-01T08:50:50;25.60;;;14.48;;
33716;SDS011;20046;50.746;7.072;2023-03-01T08:53:16;30.33;;;15.23;;
33716;SDS011;20046;50.746;7.072;2023-03-01T08:55:42;29.73;;;15.18;;
33716;SDS011;20046;50.746;7.072;2023-03-01T08:58:07;28.30;;;14.43;;
33716;SDS011;20046;50.746;7.072;2023-03-01T09:00:33;36.95;;;15.38;;
33716;SDS011;20046;50.746;7.072;2023-03-01T09:02:59;30.10;;;15.45;;
33716;SDS011;20046;50.746;7.072;2023-03-01T09:05:25;29.55;;;15.07;;
33716;SDS011;20046;50.746;7.072;2023-03-01T09:07:50;28.17;;;15.23;;
33716;SDS011;20046;50.746;7.072;2023-03-01T09:10:16;27.83;;;13.70;;
33716;SDS011;20046;50.746;7.072;2023-03-01T09:12:42;27.33;;;14.15;;
33716;SDS011;20046;50.746;7.072;2023-03-01T09:15:08;24.15;;;14.38;;
33716;SDS011;20046;50.746;7.072;2023-03-01T09:17:34;33.53;;;14.18;;
33716;SDS011;20046;50.746;7.072;2023-03-01T09:19:59;31.90;;;14.95;;
33716;SDS011;20046;50.746;7.072;2023-03-01T09:22:25;24.67;;;14.43;;
33716;SDS011;20046;50.746;7.072;2023-03-01T09:24:51;30.45;;;15.15;;
33716;SDS011;20046;50.746;7.072;2023-03-01T09:27:16;26.58;;;15.77;;
33716;SDS011;20046;50.746;7.072;2023-03-01T09:29:43;29.45;;;15.27;;
33716;SDS011;20046;50.746;7.072;2023-03-01T09:32:09;26.83;;;15.60;;
33716;SDS011;20046;50.746;7.072;2023-03-01T09:34:35;30.58;;;14.45;;
33716;SDS011;20046;50.746;7.072;2023-03-01T09:37:21;27.08;;;14.52;;
33716;SDS011;20046;50.746;7.072;2023-03-01T09:39:46;25.98;;;14.25;;
33716;SDS011;20046;50.746;7.072;2023-03-01T09:42:12;29.85;;;14.30;;
33716;SDS011;20046;50.746;7.072;2023-03-01T09:47:26;25.23;;;14.07;;
33716;SDS011;20046;50.746;7.072;2023-03-01T09:54:58;26.48;;;14.90;;
33716;SDS011;20046;50.746;7.072;2023-03-01T09:57:28;28.85;;;15.02;;
33716;SDS011;20046;50.746;7.072;2023-03-01T10:00:10;27.95;;;14.88;;
33716;SDS011;20046;50.746;7.072;2023-03-01T10:02:45;26.80;;;14.02;;
33716;SDS011;20046;50.746;7.072;2023-03-01T10:10:56;19.77;;;11.98;;
33716;SDS011;20046;50.746;7.072;2023-03-01T10:15:56;19.02;;;12.00;;
33716;SDS011;20046;50.746;7.072;2023-03-01T10:18:27;19.50;;;11.93;;
33716;SDS011;20046;50.746;7.072;2023-03-01T10:21:01;19.95;;;11.98;;
33716;SDS011;20046;50.746;7.072;2023-03-01T10:23:28;23.33;;;12.15;;
33716;SDS011;20046;50.746;7.072;2023-03-01T10:26:02;20.80;;;11.90;;
33716;SDS011;20046;50.746;7.072;2023-03-01T10:29:02;20.30;;;11.75;;
33716;SDS011;20046;50.746;7.072;2023-03-01T10:31:43;20.88;;;12.75;;
33716;SDS011;20046;50.746;7.072;2023-03-01T10:34:33;19.42;;;11.70;;
33716;SDS011;20046;50.746;7.072;2023-03-01T10:37:08;16.58;;;11.25;;
33716;SDS011;20046;50.746;7.072;2023-03-01T10:40:06;17.85;;;10.93;;
33716;SDS011;20046;50.746;7.072;2023-03-01T10:42:34;29.63;;;13.05;;
33716;SDS011;20046;50.746;7.072;2023-03-01T10:45:17;20.08;;;12.10;;
33716;SDS011;20046;50.746;7.072;2023-03-01T10:48:06;17.90;;;11.50;;
33716;SDS011;20046;50.746;7.072;2023-03-01T10:53:16;18.73;;;11.00;;
33716;SDS011;20046;50.746;7.072;2023-03-01T10:55:48;19.48;;;11.40;;
33716;SDS011;20046;50.746;7.072;2023-03-01T10:58:25;24.90;;;12.55;;
33716;SDS011;20046;50.746;7.072;2023-03-01T11:03:19;18.90;;;11.60;;
33716;SDS011;20046;50.746;7.072;2023-03-01T11:06:06;21.77;;;11.25;;
33716;SDS011;20046;50.746;7.072;2023-03-01T11:08:48;19.38;;;11.55;;
33716;SDS011;20046;50.746;7.072;2023-03-01T11:14:06;17.73;;;10.60;;
33716;SDS011;20046;50.746;7.072;2023-03-01T11:16:38;16.95;;;10.25;;
33716;SDS011;20046;50.746;7.072;2023-03-01T11:21:35;17.83;;;10.25;;
33716;SDS011;20046;50.746;7.072;2023-03-01T11:24:25;16.15;;;10.23;;
33716;SDS011;20046;50.746;7.072;2023-03-01T11:26:58;17.75;;;9.75;;
33716;SDS011;20046;50.746;7.072;2023-03-01T11:29:30;16.65;;;10.05;;
33716;SDS011;20046;50.746;7.072;2023-03-01T11:32:07;19.80;;;9.95;;
33716;SDS011;20046;50.746;7.072;2023-03-01T11:34:54;16.15;;;10.23;;
33716;SDS011;20046;50.746;7.072;2023-03-01T11:37:40;18.73;;;10.52;;
33716;SDS011;20046;50.746;7.072;2023-03-01T11:43:33;13.90;;;9.88;;
33716;SDS011;20046;50.746;7.072;2023-03-01T11:49:43;15.50;;;10.05;;
33716;SDS011;20046;50.746;7.072;2023-03-01T12:01:00;11.93;;;8.93;;
33716;SDS011;20046;50.746;7.072;2023-03-01T12:03:44;14.98;;;9.52;;
33716;SDS011;20046;50.746;7.072;2023-03-01T12:06:38;17.00;;;10.05;;
33716;SDS011;20046;50.746;7.072;2023-03-01T12:14:45;14.95;;;9.77;;
33716;SDS011;20046;50.746;7.072;2023-03-01T12:22:52;16.38;;;10.40;;
33716;SDS011;20046;50.746;7.072;2023-03-01T12:25:45;14.70;;;9.85;;
33716;SDS011;20046;50.746;7.072;2023-03-01T12:31:17;15.35;;;10.45;;
33716;SDS011;20046;50.746;7.072;2023-03-01T12:36:51;13.13;;;9.05;;
33716;SDS011;20046;50.746;7.072;2023-03-01T12:42:08;12.20;;;9.45;;
33716;SDS011;20046;50.746;7.072;2023-03-01T12:50:39;15.52;;;9.45;;
33716;SDS011;20046;50.746;7.072;2023-03-01T12:53:15;12.02;;;9.18;;
33716;SDS011;20046;50.746;7.072;2023-03-01T12:55:49;15.70;;;9.00;;
33716;SDS011;20046;50.746;7.072;2023-03-01T12:58:39;17.05;;;9.77;;
33716;SDS011;20046;50.746;7.072;2023-03-01T13:04:06;12.90;;;9.30;;
33716;SDS011;20046;50.746;7.072;2023-03-01T13:07:19;17.77;;;9.70;;
33716;SDS011;20046;50.746;7.072;2023-03-01T13:10:07;16.48;;;9.48;;
